| time (UTC) | temp F | wind direction | speed MPH | gust MPH | rain 1hr in | rain 24hr in | rain mn in | humidity % | barometer mb |
| 20260906234414 | 77 | 196 | 1.0 | 1.0 | 0.00 | 0.31 | 0.31 | 94 | 1009.5 |
| 20260906233909 | 77 | 207 | 0.0 | 0.0 | 0.00 | 0.31 | 0.31 | 93 | 1009.5 |
| 20260906233408 | 77 | 206 | 0.0 | 0.0 | 0.00 | 0.31 | 0.31 | 93 | 1009.3 |
| 20260906232906 | 78 | 206 | 0.0 | 0.0 | 0.00 | 0.31 | 0.31 | 93 | 1009.0 |
| 20260906232401 | 78 | 202 | 1.0 | 1.0 | 0.00 | 0.31 | 0.31 | 91 | 1009.1 |
| 20260906231856 | 78 | 221 | 0.0 | 0.0 | 0.00 | 0.31 | 0.31 | 90 | 1008.9 |
| 20260906231352 | 79 | 245 | 0.0 | 0.0 | 0.00 | 0.31 | 0.31 | 89 | 1008.9 |
| 20260906230850 | 79 | 245 | 0.0 | 0.0 | 0.00 | 0.31 | 0.31 | 89 | 1008.8 |
| 20260906230346 | 79 | 245 | 0.0 | 0.0 | 0.00 | 0.31 | 0.31 | 88 | 1008.9 |
| 20260906225844 | 79 | 198 | 1.0 | 1.0 | 0.00 | 0.31 | 0.31 | 88 | 1008.5 |
| 20260906225340 | 79 | 255 | 1.0 | 2.0 | 0.00 | 0.31 | 0.31 | 87 | 1008.3 |
| 20260906224835 | 79 | 254 | 1.0 | 1.0 | 0.00 | 0.31 | 0.31 | 87 | 1008.2 |
| 20260906224332 | 79 | 238 | 0.0 | 0.0 | 0.00 | 0.31 | 0.31 | 88 | 1008.3 |
| 20260906223827 | 79 | 238 | 0.0 | 0.0 | 0.00 | 0.31 | 0.31 | 89 | 1008.1 |
| 20260906223323 | 79 | 238 | 0.0 | 0.0 | 0.00 | 0.31 | 0.31 | 87 | 1008.2 |
| 20260906222821 | 79 | 239 | 0.0 | 0.0 | 0.00 | 0.31 | 0.31 | 87 | 1008.2 |
| 20260906222315 | 79 | 239 | 0.0 | 1.0 | 0.00 | 0.31 | 0.31 | 85 | 1008.3 |
| 20260906221813 | 79 | 229 | 0.0 | 0.0 | 0.00 | 0.31 | 0.31 | 84 | 1008.2 |
| 20260906221307 | 79 | 228 | 1.0 | 1.0 | 0.00 | 0.31 | 0.31 | 84 | 1008.3 |
| 20260906220803 | 80 | 217 | 1.0 | 1.0 | 0.00 | 0.31 | 0.31 | 83 | 1008.3 |
| 20260906220258 | 80 | 217 | 0.0 | 0.0 | 0.00 | 0.31 | 0.31 | 83 | 1008.5 |
| 20260906215756 | 80 | 217 | 0.0 | 0.0 | 0.00 | 0.31 | 0.31 | 83 | 1008.6 |
| 20260906215251 | 80 | 205 | 1.0 | 1.0 | 0.00 | 0.31 | 0.31 | 83 | 1008.7 |
| 20260906214749 | 80 | 204 | 1.0 | 1.0 | 0.00 | 0.31 | 0.31 | 83 | 1008.8 |
| 20260906214244 | 80 | 203 | 1.0 | 1.0 | 0.00 | 0.31 | 0.31 | 84 | 1008.9 |
| 20260906213738 | 79 | 202 | 1.0 | 1.0 | 0.00 | 0.31 | 0.31 | 85 | 1008.8 |
| 20260906213237 | 79 | 200 | 0.0 | 0.0 | 0.00 | 0.31 | 0.31 | 88 | 1008.9 |
| 20260906212735 | 78 | 200 | 0.0 | 0.0 | 0.00 | 0.31 | 0.31 | 89 | 1009.3 |
| 20260906212231 | 78 | 203 | 0.0 | 0.0 | 0.00 | 0.31 | 0.31 | 90 | 1009.2 |
| 20260906211730 | 78 | 201 | 0.0 | 0.0 | 0.00 | 0.31 | 0.31 | 91 | 1009.5 |
| 20260906211226 | 79 | 253 | 0.0 | 0.0 | 0.00 | 0.31 | 0.31 | 90 | 1009.5 |
| 20260906210721 | 79 | 215 | 1.0 | 1.0 | 0.00 | 0.31 | 0.31 | 87 | 1009.2 |
| 20260906210215 | 79 | 231 | 0.0 | 0.0 | 0.00 | 0.31 | 0.31 | 85 | 1009.1 |
| 20260906205710 | 79 | 231 | 0.0 | 0.0 | 0.00 | 0.31 | 0.31 | 87 | 1009.1 |
| 20260906205207 | 79 | 246 | 0.0 | 1.0 | 0.00 | 0.31 | 0.31 | 91 | 1009.1 |
| 20260906204701 | 79 | 148 | 1.0 | 1.0 | 0.00 | 0.31 | 0.31 | 90 | 1009.1 |
| 20260906204201 | 79 | 204 | 0.0 | 1.0 | 0.00 | 0.31 | 0.31 | 87 | 1008.9 |
| 20260906203700 | 81 | 189 | 1.0 | 1.0 | 0.00 | 0.31 | 0.31 | 85 | 1008.7 |
| 20260906203155 | 80 | 240 | 0.0 | 1.0 | 0.00 | 0.31 | 0.31 | 84 | 1008.7 |
| 20260906202653 | 80 | 266 | 1.0 | 1.0 | 0.00 | 0.31 | 0.31 | 81 | 1008.6 |
| 20260906202151 | 80 | 254 | 1.0 | 2.0 | 0.00 | 0.31 | 0.31 | 82 | 1008.7 |
| 20260906201647 | 81 | 264 | 1.0 | 1.0 | 0.00 | 0.31 | 0.31 | 80 | 1008.7 |
| 20260906201145 | 81 | 230 | 0.0 | 0.0 | 0.00 | 0.31 | 0.31 | 81 | 1008.9 |
| 20260906200642 | 80 | 246 | 0.0 | 0.0 | 0.00 | 0.31 | 0.31 | 81 | 1009.0 |
| 20260906200138 | 81 | 223 | 0.0 | 1.0 | 0.00 | 0.31 | 0.31 | 83 | 1009.1 |
| 20260906195633 | 80 | 202 | 1.0 | 2.0 | 0.00 | 0.31 | 0.31 | 81 | 1008.9 |
| 20260906195129 | 80 | 279 | 2.0 | 2.0 | 0.00 | 0.31 | 0.31 | 81 | 1009.0 |
| 20260906194625 | 80 | 277 | 2.0 | 2.0 | 0.00 | 0.31 | 0.31 | 82 | 1009.0 |
| 20260906194120 | 80 | 258 | 2.0 | 2.0 | 0.00 | 0.31 | 0.31 | 82 | 1009.1 |
| 20260906193615 | 80 | 304 | 1.0 | 1.0 | 0.00 | 0.31 | 0.31 | 81 | 1009.4 |
| 20260906193110 | 80 | 250 | 1.0 | 1.0 | 0.00 | 0.31 | 0.31 | 81 | 1009.2 |
| 20260906192606 | 80 | 263 | 0.0 | 1.0 | 0.00 | 0.31 | 0.31 | 81 | 1009.2 |
| 20260906192105 | 81 | 254 | 2.0 | 2.0 | 0.00 | 0.31 | 0.31 | 81 | 1009.3 |
| 20260906191600 | 80 | 194 | 0.0 | 0.0 | 0.00 | 0.31 | 0.31 | 83 | 1009.6 |
| 20260906191059 | 80 | 252 | 1.0 | 1.0 | 0.00 | 0.31 | 0.31 | 82 | 1009.5 |
| 20260906190559 | 79 | 272 | 2.0 | 2.0 | 0.00 | 0.31 | 0.31 | 83 | 1009.5 |
| 20260906190054 | 80 | 277 | 1.0 | 1.0 | 0.00 | 0.31 | 0.31 | 83 | 1009.6 |
| 20260906185552 | 80 | 230 | 0.0 | 0.0 | 0.00 | 0.31 | 0.31 | 84 | 1009.8 |
| 20260906185051 | 79 | 254 | 0.0 | 0.0 | 0.00 | 0.31 | 0.31 | 83 | 1009.7 |
| 20260906184547 | 79 | 232 | 3.0 | 3.0 | 0.00 | 0.31 | 0.31 | 83 | 1009.9 |
| 20260906184042 | 79 | 280 | 1.0 | 1.0 | 0.00 | 0.31 | 0.31 | 83 | 1010.1 |
| 20260906183538 | 80 | 222 | 1.0 | 2.0 | 0.00 | 0.31 | 0.31 | 83 | 1010.1 |
| 20260906183034 | 79 | 300 | 2.0 | 3.0 | 0.00 | 0.31 | 0.31 | 85 | 1010.2 |
| 20260906182529 | 79 | 245 | 2.0 | 2.0 | 0.00 | 0.31 | 0.31 | 84 | 1010.1 |
| 20260906182025 | 78 | 271 | 2.0 | 3.0 | 0.00 | 0.31 | 0.31 | 84 | 1010.0 |
| 20260906181520 | 78 | 54 | 2.0 | 2.0 | 0.00 | 0.31 | 0.31 | 86 | 1010.1 |
| 20260906181016 | 79 | 208 | 0.0 | 1.0 | 0.00 | 0.31 | 0.31 | 84 | 1010.3 |
| 20260906180511 | 79 | 206 | 1.0 | 1.0 | 0.00 | 0.31 | 0.31 | 84 | 1010.1 |
| 20260906180009 | 78 | 256 | 3.0 | 3.0 | 0.00 | 0.31 | 0.31 | 84 | 1010.1 |
| 20260906175503 | 79 | 261 | 2.0 | 2.0 | 0.00 | 0.31 | 0.31 | 84 | 1010.2 |
| 20260906175002 | 78 | 261 | 1.0 | 1.0 | 0.00 | 0.31 | 0.31 | 85 | 1010.2 |
| 20260906174455 | 77 | 254 | 1.0 | 2.0 | 0.00 | 0.31 | 0.31 | 85 | 1010.2 |
| 20260906173950 | 76 | 254 | 0.0 | 1.0 | 0.00 | 0.31 | 0.31 | 90 | 1010.2 |
| 20260906173446 | 75 | 265 | 1.0 | 1.0 | 0.00 | 0.31 | 0.31 | 92 | 1010.1 |
| 20260906172945 | 74 | 263 | 0.0 | 0.0 | 0.00 | 0.31 | 0.31 | 94 | 1010.2 |
| 20260906172442 | 73 | 263 | 3.0 | 3.0 | 0.00 | 0.31 | 0.31 | 97 | 1010.4 |
| 20260906171937 | 73 | 231 | 0.0 | 0.0 | 0.00 | 0.31 | 0.31 | 99 | 1010.5 |
| 20260906171431 | 73 | 219 | 0.0 | 1.0 | 0.00 | 0.31 | 0.31 | 99 | 1010.5 |
| 20260906170926 | 72 | 230 | 1.0 | 1.0 | 0.00 | 0.31 | 0.31 | 99 | 1010.5 |
| 20260906170417 | 71 | 228 | 0.0 | 1.0 | 0.00 | 0.31 | 0.31 | 99 | 1010.8 |
| 20260906165914 | 71 | 257 | 0.0 | 1.0 | 0.00 | 0.31 | 0.31 | 99 | 1010.7 |
| 20260906165413 | 71 | 235 | 0.0 | 1.0 | 0.00 | 0.31 | 0.31 | 99 | 1010.9 |
| 20260906164908 | 70 | 234 | 0.0 | 0.0 | 0.05 | 0.31 | 0.31 | 99 | 1010.9 |
| 20260906164407 | 70 | 234 | 1.0 | 1.0 | 0.05 | 0.31 | 0.31 | 99 | 1010.6 |
| 20260906163903 | 70 | 262 | 0.0 | 0.0 | 0.00 | 0.30 | 0.30 | 99 | 1010.6 |
| 20260906163359 | 69 | 226 | 0.0 | 0.0 | 0.07 | 0.30 | 0.30 | 99 | 1010.9 |
| 20260906162857 | 70 | 225 | 0.0 | 0.0 | 0.12 | 0.30 | 0.30 | 99 | 1010.8 |
| 20260906162355 | 70 | 248 | 0.0 | 0.0 | 0.12 | 0.29 | 0.29 | 99 | 1010.7 |
| 20260906161851 | 69 | 199 | 1.0 | 1.0 | 0.19 | 0.28 | 0.28 | 99 | 1010.8 |
| 20260906161350 | 69 | 235 | 0.0 | 0.0 | 0.19 | 0.27 | 0.27 | 98 | 1010.6 |
| 20260906160849 | 69 | 237 | 1.0 | 1.0 | 0.07 | 0.25 | 0.25 | 98 | 1010.9 |
| 20260906160343 | 69 | 258 | 0.0 | 0.0 | 0.05 | 0.24 | 0.24 | 98 | 1010.7 |
| 20260906155841 | 69 | 230 | 0.0 | 0.0 | 0.05 | 0.24 | 0.24 | 98 | 1010.7 |
| 20260906155335 | 69 | 208 | 0.0 | 1.0 | 0.00 | 0.23 | 0.23 | 98 | 1010.8 |
| 20260906154831 | 69 | 223 | 1.0 | 1.0 | 0.00 | 0.23 | 0.23 | 97 | 1010.7 |
| 20260906154320 | 69 | 250 | 0.0 | 0.0 | 0.00 | 0.23 | 0.23 | 97 | 1010.8 |
| 20260906153818 | 69 | 250 | 0.0 | 0.0 | 0.00 | 0.23 | 0.23 | 96 | 1011.2 |
| 20260906153313 | 70 | 233 | 0.0 | 1.0 | 0.19 | 0.23 | 0.23 | 95 | 1011.1 |
| 20260906152808 | 70 | 312 | 2.0 | 3.0 | 0.31 | 0.23 | 0.23 | 95 | 1011.4 |
| 20260906152306 | 72 | 259 | 4.0 | 5.0 | 0.35 | 0.21 | 0.21 | 96 | 1011.3 |
| 20260906151802 | 73 | 249 | 1.0 | 1.0 | 0.78 | 0.18 | 0.18 | 95 | 1011.2 |
| 20260906151258 | 74 | 224 | 1.0 | 1.0 | 0.85 | 0.15 | 0.15 | 94 | 1011.2 |
| 20260906150753 | 76 | 187 | 2.0 | 2.0 | 0.24 | 0.05 | 0.05 | 90 | 1011.3 |
| 20260906150249 | 77 | 182 | 3.0 | 3.0 | 0.00 | 0.01 | 0.01 | 89 | 1011.1 |
| 20260906145748 | 77 | 209 | 2.0 | 2.0 | 0.00 | 0.01 | 0.01 | 88 | 1010.8 |
| 20260906145246 | 78 | 263 | 1.0 | 2.0 | 0.00 | 0.01 | 0.01 | 86 | 1010.3 |
| 20260906144742 | 78 | 239 | 1.0 | 1.0 | 0.00 | 0.01 | 0.01 | 86 | 1010.3 |
| 20260906144237 | 78 | 249 | 0.0 | 1.0 | 0.00 | 0.01 | 0.01 | 86 | 1010.5 |
| 20260906143736 | 78 | 248 | 0.0 | 0.0 | 0.00 | 0.01 | 0.01 | 85 | 1010.6 |
| 20260906143233 | 78 | 318 | 1.0 | 2.0 | 0.00 | 0.01 | 0.01 | 85 | 1010.7 |
| 20260906142732 | 78 | 197 | 5.0 | 6.0 | 0.00 | 0.01 | 0.01 | 86 | 1010.3 |
| 20260906142228 | 79 | 260 | 2.0 | 2.0 | 0.00 | 0.01 | 0.01 | 84 | 1010.4 |
| 20260906141727 | 78 | 233 | 1.0 | 2.0 | 0.00 | 0.01 | 0.01 | 84 | 1010.2 |
| 20260906141222 | 78 | 295 | 4.0 | 5.0 | 0.00 | 0.01 | 0.01 | 85 | 1010.0 |
| 20260906140721 | 77 | 288 | 3.0 | 3.0 | 0.00 | 0.01 | 0.01 | 86 | 1009.9 |
| 20260906140216 | 77 | 305 | 3.0 | 6.0 | 0.00 | 0.01 | 0.01 | 86 | 1010.0 |
| 20260906135713 | 77 | 318 | 2.0 | 2.0 | 0.00 | 0.01 | 0.01 | 87 | 1010.3 |
| 20260906135209 | 77 | 241 | 3.0 | 3.0 | 0.00 | 0.01 | 0.01 | 87 | 1010.1 |
| 20260906134704 | 76 | 275 | 1.0 | 1.0 | 0.00 | 0.01 | 0.01 | 87 | 1010.0 |
| 20260906134159 | 76 | 280 | 2.0 | 2.0 | 0.00 | 0.01 | 0.01 | 87 | 1009.9 |
| 20260906133655 | 76 | 251 | 3.0 | 3.0 | 0.00 | 0.01 | 0.01 | 87 | 1010.2 |
| 20260906133150 | 76 | 311 | 2.0 | 2.0 | 0.00 | 0.01 | 0.01 | 87 | 1010.1 |
| 20260906132645 | 77 | 283 | 3.0 | 3.0 | 0.00 | 0.01 | 0.01 | 87 | 1009.9 |
| 20260906132141 | 76 | 285 | 2.0 | 2.0 | 0.00 | 0.01 | 0.01 | 87 | 1010.1 |
| 20260906131636 | 77 | 266 | 1.0 | 1.0 | 0.00 | 0.01 | 0.01 | 88 | 1009.9 |
| 20260906131131 | 77 | 276 | 2.0 | 2.0 | 0.00 | 0.01 | 0.01 | 88 | 1009.9 |
| 20260906130627 | 75 | 256 | 3.0 | 3.0 | 0.00 | 0.01 | 0.01 | 91 | 1010.0 |
| 20260906130121 | 75 | 261 | 2.0 | 2.0 | 0.00 | 0.01 | 0.01 | 92 | 1010.0 |
| 20260906125619 | 74 | 254 | 1.0 | 1.0 | 0.00 | 0.01 | 0.01 | 93 | 1010.0 |
| 20260906125112 | 73 | 168 | 2.0 | 2.0 | 0.00 | 0.01 | 0.01 | 94 | 1010.1 |
| 20260906124608 | 73 | 237 | 2.0 | 2.0 | 0.00 | 0.01 | 0.01 | 95 | 1010.0 |
| 20260906124103 | 73 | 265 | 2.0 | 2.0 | 0.00 | 0.01 | 0.01 | 95 | 1009.9 |
| 20260906123602 | 73 | 273 | 2.0 | 2.0 | 0.00 | 0.01 | 0.01 | 95 | 1009.9 |
| 20260906123057 | 73 | 270 | 1.0 | 2.0 | 0.00 | 0.01 | 0.01 | 95 | 1010.0 |
| 20260906122556 | 74 | 251 | 0.0 | 0.0 | 0.00 | 0.01 | 0.01 | 95 | 1009.9 |
| 20260906122053 | 74 | 245 | 0.0 | 0.0 | 0.00 | 0.01 | 0.01 | 95 | 1009.8 |
| 20260906121548 | 74 | 272 | 2.0 | 3.0 | 0.00 | 0.01 | 0.01 | 95 | 1009.7 |
| 20260906121045 | 74 | 270 | 1.0 | 1.0 | 0.00 | 0.01 | 0.01 | 97 | 1009.4 |
| 20260906120540 | 73 | 234 | 0.0 | 0.0 | 0.00 | 0.01 | 0.01 | 98 | 1009.7 |
| 20260906120037 | 72 | 246 | 0.0 | 0.0 | 0.00 | 0.01 | 0.01 | 99 | 1009.8 |
| 20260906115536 | 72 | 245 | 0.0 | 1.0 | 0.00 | 0.01 | 0.01 | 99 | 1009.6 |
| 20260906115032 | 72 | 231 | 0.0 | 0.0 | 0.00 | 0.01 | 0.01 | 99 | 1009.5 |
| 20260906114526 | 71 | 224 | 0.0 | 1.0 | 0.00 | 0.01 | 0.01 | 99 | 1009.3 |
| 20260906114022 | 71 | 245 | 0.0 | 0.0 | 0.00 | 0.01 | 0.01 | 99 | 1009.2 |
| 20260906113520 | 71 | 220 | 1.0 | 1.0 | 0.00 | 0.01 | 0.01 | 99 | 1009.1 |
| 20260906113016 | 71 | 256 | 0.0 | 0.0 | 0.00 | 0.01 | 0.01 | 99 | 1009.3 |
| 20260906112511 | 71 | 187 | 0.0 | 1.0 | 0.00 | 0.01 | 0.01 | 99 | 1009.1 |
| 20260906112007 | 71 | 256 | 0.0 | 0.0 | 0.00 | 0.01 | 0.01 | 99 | 1009.2 |
| 20260906111501 | 71 | 256 | 1.0 | 2.0 | 0.00 | 0.01 | 0.01 | 99 | 1009.0 |
| 20260906110956 | 71 | 258 | 3.0 | 5.0 | 0.00 | 0.01 | 0.01 | 99 | 1009.1 |
| 20260906110451 | 71 | 253 | 0.0 | 0.0 | 0.00 | 0.01 | 0.01 | 99 | 1009.1 |
| 20260906105949 | 70 | 261 | 0.0 | 1.0 | 0.00 | 0.01 | 0.01 | 99 | 1008.9 |
| 20260906105446 | 70 | 236 | 1.0 | 1.0 | 0.00 | 0.01 | 0.01 | 99 | 1009.1 |
| 20260906104942 | 70 | 260 | 1.0 | 1.0 | 0.00 | 0.01 | 0.01 | 99 | 1008.7 |
| 20260906104440 | 70 | 250 | 1.0 | 2.0 | 0.00 | 0.01 | 0.01 | 99 | 1008.9 |
| 20260906103939 | 70 | 259 | 1.0 | 2.0 | 0.00 | 0.01 | 0.01 | 99 | 1008.8 |
| 20260906103437 | 70 | 267 | 2.0 | 2.0 | 0.00 | 0.01 | 0.01 | 99 | 1008.8 |
| 20260906102932 | 69 | 260 | 1.0 | 1.0 | 0.00 | 0.01 | 0.01 | 99 | 1008.9 |
| 20260906102427 | 69 | 248 | 0.0 | 1.0 | 0.00 | 0.01 | 0.01 | 99 | 1008.9 |
| 20260906101921 | 69 | 209 | 0.0 | 0.0 | 0.00 | 0.01 | 0.01 | 99 | 1008.5 |
| 20260906101411 | 68 | 209 | 0.0 | 0.0 | 0.00 | 0.01 | 0.01 | 99 | 1008.5 |
| 20260906100907 | 68 | 209 | 0.0 | 0.0 | 0.00 | 0.01 | 0.01 | 99 | 1008.4 |
| 20260906100406 | 68 | 209 | 0.0 | 0.0 | 0.00 | 0.01 | 0.01 | 99 | 1008.2 |
| 20260906095901 | 68 | 209 | 0.0 | 0.0 | 0.00 | 0.01 | 0.01 | 99 | 1008.1 |
| 20260906095356 | 69 | 209 | 0.0 | 0.0 | 0.00 | 0.01 | 0.01 | 99 | 1008.1 |
| 20260906094856 | 69 | 209 | 0.0 | 0.0 | 0.00 | 0.01 | 0.01 | 99 | 1008.0 |
| 20260906094350 | 69 | 209 | 0.0 | 0.0 | 0.00 | 0.01 | 0.01 | 99 | 1007.8 |
| 20260906093842 | 69 | 208 | 0.0 | 0.0 | 0.00 | 0.01 | 0.01 | 99 | 1008.1 |
| 20260906093337 | 69 | 226 | 0.0 | 1.0 | 0.00 | 0.01 | 0.01 | 99 | 1008.0 |
| 20260906092831 | 69 | 228 | 0.0 | 0.0 | 0.00 | 0.01 | 0.01 | 99 | 1008.0 |
| 20260906092326 | 69 | 228 | 1.0 | 1.0 | 0.00 | 0.01 | 0.01 | 99 | 1008.1 |
| 20260906091822 | 69 | 228 | 1.0 | 1.0 | 0.00 | 0.01 | 0.01 | 99 | 1008.3 |
| 20260906091318 | 69 | 228 | 1.0 | 1.0 | 0.00 | 0.01 | 0.01 | 99 | 1008.0 |
| 20260906090814 | 69 | 228 | 0.0 | 0.0 | 0.00 | 0.01 | 0.01 | 99 | 1008.1 |
| 20260906090312 | 69 | 228 | 0.0 | 0.0 | 0.00 | 0.01 | 0.01 | 99 | 1007.9 |
| 20260906085807 | 69 | 228 | 0.0 | 0.0 | 0.00 | 0.01 | 0.01 | 99 | 1008.0 |
| 20260906085307 | 69 | 228 | 0.0 | 0.0 | 0.00 | 0.01 | 0.01 | 99 | 1007.8 |
| 20260906084800 | 69 | 228 | 0.0 | 0.0 | 0.00 | 0.01 | 0.01 | 99 | 1007.7 |
| 20260906084255 | 69 | 228 | 0.0 | 0.0 | 0.00 | 0.01 | 0.01 | 99 | 1007.9 |
| 20260906083749 | 69 | 228 | 0.0 | 0.0 | 0.00 | 0.01 | 0.01 | 99 | 1007.7 |
| 20260906083245 | 69 | 228 | 0.0 | 1.0 | 0.00 | 0.01 | 0.01 | 99 | 1008.0 |
| 20260906082739 | 70 | 228 | 0.0 | 0.0 | 0.05 | 0.01 | 0.01 | 99 | 1007.8 |
| 20260906082235 | 70 | 227 | 1.0 | 1.0 | 0.05 | 0.01 | 0.01 | 99 | 1007.8 |
| 20260906081731 | 70 | 236 | 0.0 | 0.0 | 0.00 | 0.00 | 0.00 | 99 | 1007.9 |
| 20260906081225 | 69 | 238 | 0.0 | 0.0 | 0.00 | 0.00 | 0.00 | 99 | 1007.7 |
| 20260906080722 | 69 | 238 | 0.0 | 0.0 | 0.00 | 0.00 | 0.00 | 99 | 1007.7 |
| 20260906080218 | 70 | 239 | 0.0 | 0.0 | 0.00 | 0.00 | 0.00 | 99 | 1007.4 |
| 20260906075712 | 70 | 238 | 0.0 | 0.0 | 0.00 | 0.00 | 0.00 | 99 | 1007.1 |
| 20260906075207 | 70 | 238 | 0.0 | 0.0 | 0.00 | 0.00 | 0.00 | 99 | 1007.2 |
| 20260906074702 | 70 | 238 | 0.0 | 0.0 | 0.00 | 0.00 | 0.00 | 99 | 1007.2 |
| 20260906074201 | 70 | 238 | 0.0 | 1.0 | 0.00 | 0.00 | 0.00 | 99 | 1007.2 |
| 20260906073656 | 70 | 238 | 0.0 | 0.0 | 0.00 | 0.00 | 0.00 | 99 | 1007.1 |
| 20260906073151 | 70 | 241 | 0.0 | 0.0 | 0.00 | 0.00 | 0.00 | 99 | 1007.1 |
| 20260906072647 | 71 | 240 | 0.0 | 0.0 | 0.00 | 0.00 | 0.00 | 99 | 1007.2 |
| 20260906072142 | 71 | 241 | 0.0 | 0.0 | 0.00 | 0.00 | 0.00 | 99 | 1007.2 |
| 20260906071638 | 71 | 232 | 0.0 | 0.0 | 0.00 | 0.00 | 0.00 | 99 | 1007.3 |
| 20260906071133 | 71 | 241 | 0.0 | 0.0 | 0.00 | 0.00 | 0.00 | 99 | 1007.3 |
| 20260906070629 | 71 | 241 | 0.0 | 0.0 | 0.00 | 0.00 | 0.00 | 99 | 1007.2 |
| 20260906070125 | 71 | 241 | 0.0 | 0.0 | 0.00 | 0.00 | 0.00 | 99 | 1007.2 |
| 20260906065624 | 71 | 241 | 0.0 | 0.0 | 0.00 | 0.00 | 0.00 | 99 | 1007.7 |
| 20260906065120 | 70 | 203 | 1.0 | 1.0 | 0.00 | 0.00 | 0.00 | 99 | 1007.7 |
| 20260906064615 | 70 | 203 | 0.0 | 0.0 | 0.00 | 0.00 | 0.00 | 99 | 1007.7 |
| 20260906064110 | 70 | 203 | 0.0 | 1.0 | 0.00 | 0.00 | 0.00 | 99 | 1007.8 |
| 20260906063605 | 71 | 203 | 0.0 | 0.0 | 0.00 | 0.00 | 0.00 | 99 | 1008.0 |
| 20260906063101 | 70 | 203 | 0.0 | 0.0 | 0.00 | 0.00 | 0.00 | 99 | 1008.1 |
| 20260906062557 | 70 | 203 | 0.0 | 0.0 | 0.00 | 0.00 | 0.00 | 99 | 1008.1 |
| 20260906062055 | 70 | 203 | 0.0 | 0.0 | 0.00 | 0.00 | 0.00 | 99 | 1008.0 |
| 20260906061552 | 70 | 202 | 0.0 | 0.0 | 0.00 | 0.00 | 0.00 | 99 | 1008.1 |
| 20260906061051 | 71 | 203 | 0.0 | 0.0 | 0.00 | 0.00 | 0.00 | 99 | 1008.0 |
| 20260906060548 | 71 | 202 | 0.0 | 0.0 | 0.00 | 0.00 | 0.00 | 99 | 1008.0 |
| 20260906060045 | 71 | 203 | 0.0 | 0.0 | 0.00 | 0.00 | 0.00 | 99 | 1008.0 |
| 20260906055541 | 71 | 203 | 0.0 | 0.0 | 0.00 | 0.00 | 0.00 | 99 | 1008.1 |
| 20260906055035 | 71 | 202 | 0.0 | 0.0 | 0.00 | 0.00 | 0.00 | 99 | 1008.2 |
| 20260906054530 | 71 | 203 | 0.0 | 0.0 | 0.00 | 0.00 | 0.00 | 99 | 1008.3 |
| 20260906054025 | 71 | 203 | 0.0 | 0.0 | 0.00 | 0.00 | 0.00 | 99 | 1008.1 |
| 20260906053521 | 71 | 203 | 0.0 | 0.0 | 0.00 | 0.00 | 0.00 | 99 | 1008.2 |
| 20260906053017 | 71 | 203 | 0.0 | 0.0 | 0.00 | 0.00 | 0.00 | 99 | 1008.1 |
| 20260906052512 | 71 | 202 | 0.0 | 0.0 | 0.00 | 0.00 | 0.00 | 99 | 1008.3 |
| 20260906052009 | 71 | 202 | 0.0 | 0.0 | 0.00 | 0.00 | 0.00 | 99 | 1008.1 |
| 20260906051505 | 71 | 202 | 0.0 | 0.0 | 0.00 | 0.00 | 0.00 | 99 | 1008.2 |
| 20260906051000 | 71 | 202 | 0.0 | 0.0 | 0.00 | 0.00 | 0.00 | 99 | 1008.3 |
| 20260906050500 | 71 | 202 | 0.0 | 0.0 | 0.00 | 0.00 | 0.00 | 99 | 1008.6 |
| 20260906045954 | 71 | 202 | 0.0 | 0.0 | 0.00 | 0.01 | 0.01 | 99 | 1008.4 |
| 20260906045453 | 71 | 202 | 0.0 | 0.0 | 0.00 | 0.01 | 0.01 | 99 | 1008.3 |
| 20260906044949 | 71 | 202 | 0.0 | 0.0 | 0.00 | 0.01 | 0.01 | 99 | 1008.4 |
| 20260906044444 | 72 | 202 | 0.0 | 0.0 | 0.00 | 0.01 | 0.01 | 99 | 1008.4 |
| 20260906043940 | 72 | 202 | 0.0 | 0.0 | 0.00 | 0.01 | 0.01 | 99 | 1008.3 |
| 20260906043435 | 72 | 202 | 0.0 | 0.0 | 0.00 | 0.01 | 0.01 | 99 | 1008.4 |
| 20260906042931 | 71 | 203 | 0.0 | 0.0 | 0.00 | 0.01 | 0.01 | 99 | 1008.5 |
| 20260906042430 | 71 | 203 | 0.0 | 0.0 | 0.00 | 0.01 | 0.01 | 99 | 1008.5 |
| 20260906041925 | 72 | 203 | 0.0 | 0.0 | 0.00 | 0.01 | 0.01 | 99 | 1008.7 |
| 20260906041421 | 72 | 203 | 0.0 | 0.0 | 0.00 | 0.01 | 0.01 | 99 | 1008.6 |
| 20260906040920 | 72 | 203 | 0.0 | 0.0 | 0.00 | 0.01 | 0.01 | 99 | 1008.7 |
| 20260906040416 | 72 | 203 | 0.0 | 0.0 | 0.00 | 0.01 | 0.01 | 99 | 1008.8 |
| 20260906035911 | 71 | 203 | 0.0 | 0.0 | 0.00 | 0.01 | 0.01 | 99 | 1008.8 |
| 20260906035406 | 71 | 203 | 0.0 | 0.0 | 0.00 | 0.01 | 0.01 | 99 | 1008.6 |
| 20260906034902 | 71 | 203 | 0.0 | 0.0 | 0.00 | 0.01 | 0.01 | 99 | 1008.8 |
| 20260906034356 | 71 | 203 | 0.0 | 0.0 | 0.00 | 0.01 | 0.01 | 99 | 1008.6 |
| 20260906033852 | 71 | 203 | 0.0 | 0.0 | 0.00 | 0.01 | 0.01 | 99 | 1008.5 |
| 20260906033351 | 71 | 203 | 0.0 | 0.0 | 0.00 | 0.01 | 0.01 | 99 | 1008.6 |
| 20260906032848 | 71 | 203 | 0.0 | 0.0 | 0.00 | 0.01 | 0.01 | 99 | 1008.5 |
| 20260906032343 | 72 | 203 | 0.0 | 0.0 | 0.00 | 0.01 | 0.01 | 99 | 1008.7 |
| 20260906031838 | 72 | 203 | 0.0 | 0.0 | 0.00 | 0.01 | 0.01 | 99 | 1008.7 |
| 20260906031334 | 71 | 203 | 0.0 | 0.0 | 0.00 | 0.01 | 0.01 | 99 | 1008.5 |
| 20260906030833 | 71 | 203 | 0.0 | 0.0 | 0.00 | 0.01 | 0.01 | 99 | 1008.6 |
| 20260906030329 | 71 | 203 | 0.0 | 0.0 | 0.00 | 0.01 | 0.01 | 99 | 1008.7 |
| 20260906025823 | 71 | 203 | 0.0 | 0.0 | 0.00 | 0.01 | 0.01 | 99 | 1008.8 |
| 20260906025317 | 72 | 203 | 0.0 | 0.0 | 0.00 | 0.01 | 0.01 | 99 | 1008.6 |
| 20260906024816 | 72 | 203 | 0.0 | 0.0 | 0.00 | 0.01 | 0.01 | 99 | 1008.6 |
| 20260906024315 | 72 | 203 | 0.0 | 0.0 | 0.00 | 0.01 | 0.01 | 99 | 1008.5 |
| 20260906023811 | 72 | 203 | 0.0 | 0.0 | 0.00 | 0.01 | 0.01 | 99 | 1008.3 |
| 20260906023307 | 72 | 203 | 0.0 | 0.0 | 0.00 | 0.01 | 0.01 | 99 | 1008.3 |
| 20260906022802 | 72 | 203 | 0.0 | 0.0 | 0.00 | 0.01 | 0.01 | 98 | 1008.3 |
| 20260906022257 | 72 | 203 | 0.0 | 0.0 | 0.00 | 0.01 | 0.01 | 98 | 1008.3 |
| 20260906021753 | 72 | 203 | 0.0 | 0.0 | 0.00 | 0.01 | 0.01 | 98 | 1008.4 |
| 20260906021252 | 72 | 203 | 0.0 | 0.0 | 0.00 | 0.01 | 0.01 | 98 | 1008.2 |
| 20260906020747 | 72 | 203 | 0.0 | 0.0 | 0.00 | 0.01 | 0.01 | 98 | 1008.5 |
| 20260906020247 | 72 | 203 | 0.0 | 0.0 | 0.00 | 0.01 | 0.01 | 98 | 1008.4 |
| 20260906015741 | 73 | 203 | 0.0 | 0.0 | 0.00 | 0.01 | 0.01 | 98 | 1008.3 |
| 20260906015239 | 73 | 203 | 0.0 | 1.0 | 0.00 | 0.01 | 0.01 | 98 | 1008.4 |
| 20260906014734 | 73 | 202 | 0.0 | 0.0 | 0.00 | 0.01 | 0.01 | 98 | 1008.7 |
| 20260906014225 | 73 | 202 | 0.0 | 0.0 | 0.00 | 0.01 | 0.01 | 98 | 1008.5 |
| 20260906013721 | 73 | 202 | 0.0 | 0.0 | 0.00 | 0.01 | 0.01 | 98 | 1008.3 |
| 20260906013221 | 73 | 200 | 1.0 | 1.0 | 0.00 | 0.01 | 0.01 | 98 | 1008.2 |
| 20260906012715 | 73 | 192 | 1.0 | 1.0 | 0.00 | 0.01 | 0.01 | 98 | 1008.2 |
| 20260906012210 | 73 | 196 | 0.0 | 0.0 | 0.00 | 0.01 | 0.01 | 97 | 1008.2 |
| 20260906011706 | 73 | 196 | 0.0 | 0.0 | 0.00 | 0.01 | 0.01 | 97 | 1008.1 |
| 20260906011206 | 73 | 196 | 0.0 | 0.0 | 0.00 | 0.01 | 0.01 | 97 | 1008.0 |
| 20260906010701 | 73 | 196 | 0.0 | 1.0 | 0.00 | 0.01 | 0.01 | 97 | 1007.7 |
| 20260906010158 | 73 | 196 | 0.0 | 0.0 | 0.00 | 0.01 | 0.01 | 96 | 1007.8 |
| 20260906005657 | 73 | 196 | 0.0 | 0.0 | 0.00 | 0.01 | 0.01 | 96 | 1007.6 |
| 20260906005156 | 74 | 196 | 0.0 | 0.0 | 0.00 | 0.01 | 0.01 | 96 | 1007.8 |
| 20260906004655 | 74 | 196 | 0.0 | 0.0 | 0.00 | 0.01 | 0.01 | 96 | 1008.0 |
| 20260906004150 | 74 | 196 | 0.0 | 0.0 | 0.00 | 0.01 | 0.01 | 96 | 1007.8 |
| 20260906003640 | 74 | 196 | 0.0 | 1.0 | 0.00 | 0.01 | 0.01 | 96 | 1007.8 |
| 20260906003136 | 74 | 196 | 0.0 | 0.0 | 0.00 | 0.01 | 0.01 | 95 | 1007.6 |
| 20260906002630 | 75 | 196 | 0.0 | 0.0 | 0.00 | 0.01 | 0.01 | 95 | 1007.7 |
| 20260906002125 | 75 | 196 | 0.0 | 0.0 | 0.00 | 0.01 | 0.01 | 95 | 1007.6 |
| 20260906001621 | 75 | 196 | 0.0 | 0.0 | 0.00 | 0.01 | 0.01 | 95 | 1007.8 |
| 20260906001120 | 75 | 196 | 0.0 | 0.0 | 0.00 | 0.01 | 0.01 | 95 | 1007.3 |
| 20260906000616 | 75 | 196 | 0.0 | 0.0 | 0.00 | 0.01 | 0.01 | 94 | 1007.3 |
| 20260906000112 | 75 | 196 | 0.0 | 0.0 | 0.00 | 0.01 | 0.01 | 93 | 1007.3 |
| 20260905235610 | 76 | 196 | 0.0 | 0.0 | 0.00 | 0.01 | 0.01 | 93 | 1007.2 |
| 20260905235106 | 76 | 196 | 0.0 | 0.0 | 0.00 | 0.01 | 0.01 | 92 | 1007.2 |